Time;durP1;ratioP1;P1;durP2;ratioP2;P2;SDS_P1;SDS_P2;PMS_P1;PMS_P2;Temp;Humidity;BMP_temperature;BMP_pressure;BME280_temperature;BME280_humidity;BME280_pressure;Samples;Min_cycle;Max_cycle;Signal;HPM_P1;HPM_P2
2023/12/09 00:01:33;;;;;;;39.17;18.08;;;;;;;4.71;100.00;100917.97;5045263;28;20494;-67
2023/12/09 00:03:58;;;;;;;40.65;16.77;;;;;;;4.77;100.00;100914.34;5042796;28;20112;-67
2023/12/09 00:06:24;;;;;;;42.58;16.27;;;;;;;4.78;100.00;100911.66;5044084;28;20037;-67
2023/12/09 00:08:50;;;;;;;37.97;17.10;;;;;;;4.78;100.00;100905.53;5044425;28;20134;-67
2023/12/09 00:11:16;;;;;;;37.83;16.00;;;;;;;4.79;100.00;100910.75;5026297;28;20471;-67
2023/12/09 00:13:41;;;;;;;40.00;16.20;;;;;;;4.82;100.00;100905.41;5044578;28;20211;-68
2023/12/09 00:16:07;;;;;;;42.35;16.90;;;;;;;4.74;100.00;100896.81;5040723;28;20043;-67
2023/12/09 00:18:33;;;;;;;40.45;16.88;;;;;;;4.75;100.00;100899.41;5043423;28;20021;-68
2023/12/09 00:20:58;;;;;;;42.80;15.75;;;;;;;4.68;100.00;100902.22;5044188;28;20048;-67
2023/12/09 00:23:23;;;;;;;39.63;16.60;;;;;;;4.78;100.00;100906.38;5043822;28;20100;-67
2023/12/09 00:25:49;;;;;;;36.78;16.90;;;;;;;4.75;100.00;100901.19;5043979;28;20106;-67
2023/12/09 00:28:14;;;;;;;39.58;16.08;;;;;;;4.77;100.00;100915.22;5043387;28;20021;-67
2023/12/09 00:30:40;;;;;;;42.50;16.85;;;;;;;4.79;100.00;100913.38;5043845;28;20040;-67
2023/12/09 00:33:05;;;;;;;41.53;17.30;;;;;;;4.81;100.00;100916.84;5025173;28;20033;-67
2023/12/09 00:35:30;;;;;;;41.35;15.93;;;;;;;4.76;100.00;100929.28;5041359;28;20033;-67
2023/12/09 00:37:56;;;;;;;42.47;16.17;;;;;;;4.74;100.00;100929.31;5043480;28;20025;-68
2023/12/09 00:40:22;;;;;;;36.25;16.40;;;;;;;4.73;100.00;100927.59;5043698;28;20090;-68
2023/12/09 00:42:47;;;;;;;36.40;15.15;;;;;;;4.76;100.00;100905.53;5043790;28;20024;-66
2023/12/09 00:45:14;;;;;;;42.90;16.92;;;;;;;4.83;100.00;100903.63;5043000;28;20105;-66
2023/12/09 00:47:39;;;;;;;34.15;15.77;;;;;;;4.88;100.00;100907.00;5042683;28;20039;-66
2023/12/09 00:50:05;;;;;;;45.35;16.65;;;;;;;4.90;100.00;100905.19;5042770;28;20029;-66
2023/12/09 00:52:31;;;;;;;36.15;16.48;;;;;;;4.90;100.00;100911.34;5040843;28;20033;-66
2023/12/09 00:54:57;;;;;;;43.83;17.95;;;;;;;4.86;100.00;100899.13;5041427;28;20033;-66
2023/12/09 00:57:24;;;;;;;41.20;16.17;;;;;;;4.83;100.00;100906.25;5042156;28;20052;-66
2023/12/09 00:59:49;;;;;;;34.72;16.33;;;;;;;4.81;100.00;100890.50;5042800;28;20037;-67
2023/12/09 01:02:15;;;;;;;35.15;15.93;;;;;;;4.73;100.00;100890.69;5042033;28;20367;-68
2023/12/09 01:04:40;;;;;;;40.10;15.75;;;;;;;4.76;100.00;100897.63;5041892;28;20078;-68
2023/12/09 01:07:05;;;;;;;40.72;15.23;;;;;;;4.69;100.00;100904.00;5040739;28;20419;-66
2023/12/09 01:09:31;;;;;;;41.70;16.10;;;;;;;4.66;100.00;100904.91;5043010;28;20037;-66
2023/12/09 01:11:56;;;;;;;40.92;15.48;;;;;;;4.59;100.00;100913.00;5042588;28;20384;-66
2023/12/09 01:14:21;;;;;;;38.50;14.73;;;;;;;4.64;100.00;100903.22;5042501;28;20029;-67
2023/12/09 01:16:47;;;;;;;35.92;15.88;;;;;;;4.60;100.00;100901.56;5043239;28;20032;-67
2023/12/09 01:19:12;;;;;;;35.00;15.15;;;;;;;4.61;100.00;100887.50;5043547;28;20479;-67
2023/12/09 01:21:38;;;;;;;39.95;15.90;;;;;;;4.56;100.00;100892.03;5042437;28;20483;-66
2023/12/09 01:24:04;;;;;;;43.08;16.38;;;;;;;4.50;100.00;100899.16;5042725;28;20026;-66
2023/12/09 01:26:30;;;;;;;46.25;16.92;;;;;;;4.56;100.00;100898.16;5043823;28;20156;-66
2023/12/09 01:28:57;;;;;;;39.78;16.45;;;;;;;4.56;100.00;100900.78;5043360;28;20024;-67
2023/12/09 01:31:22;;;;;;;44.20;16.65;;;;;;;4.51;100.00;100905.28;5039214;28;20433;-67
2023/12/09 01:33:47;;;;;;;43.80;16.80;;;;;;;4.40;100.00;100902.94;5032512;28;20033;-67
2023/12/09 01:36:13;;;;;;;41.85;17.25;;;;;;;4.34;100.00;100900.44;5039822;28;20032;-67
2023/12/09 01:38:38;;;;;;;43.78;17.08;;;;;;;4.35;100.00;100896.94;5042773;28;20040;-67
2023/12/09 01:41:03;;;;;;;50.08;17.50;;;;;;;4.33;100.00;100900.50;5042538;28;20033;-67
2023/12/09 01:43:29;;;;;;;49.13;17.40;;;;;;;4.32;100.00;100899.63;5040624;28;20402;-67
2023/12/09 01:46:02;;;;;;;41.38;17.40;;;;;;;4.23;100.00;100887.53;5040608;28;20037;-67
2023/12/09 01:48:27;;;;;;;40.72;16.63;;;;;;;4.24;100.00;100885.78;5039433;28;20036;-66
2023/12/09 01:50:53;;;;;;;47.08;18.10;;;;;;;4.24;100.00;100877.88;5041699;28;20033;-66
2023/12/09 01:53:18;;;;;;;48.63;17.52;;;;;;;4.18;100.00;100867.47;5041909;28;20021;-67
2023/12/09 01:55:43;;;;;;;47.20;17.25;;;;;;;4.12;100.00;100863.22;5039919;28;20024;-67
2023/12/09 01:58:10;;;;;;;44.50;17.10;;;;;;;4.06;100.00;100859.88;5041281;28;20067;-67
2023/12/09 02:00:49;;;;;;;45.10;17.20;;;;;;;4.05;100.00;100855.50;5042820;28;20905;-67
2023/12/09 02:03:16;;;;;;;49.72;18.05;;;;;;;4.04;100.00;100845.88;5040590;28;20044;-67
2023/12/09 02:05:42;;;;;;;37.42;18.05;;;;;;;4.07;100.00;100857.19;5040590;28;20139;-67
2023/12/09 02:08:07;;;;;;;42.15;17.23;;;;;;;4.07;100.00;100858.97;5038180;28;20123;-66
2023/12/09 02:10:32;;;;;;;56.13;18.63;;;;;;;4.01;100.00;100852.06;5036632;28;20415;-65
2023/12/09 02:13:31;;;;;;;52.08;18.02;;;;;;;4.05;100.00;100863.38;5032046;28;20022;-66
2023/12/09 02:16:06;;;;;;;49.55;18.63;;;;;;;3.99;100.00;100865.28;5033768;28;20045;-66
2023/12/09 02:18:33;;;;;;;46.70;17.98;;;;;;;3.97;100.00;100846.03;5047573;28;20024;-66
2023/12/09 02:20:58;;;;;;;44.63;17.85;;;;;;;3.96;100.00;100853.94;5042672;28;20013;-66
2023/12/09 02:23:24;;;;;;;48.28;17.85;;;;;;;3.88;100.00;100855.88;5043293;28;20384;-66
2023/12/09 02:25:57;;;;;;;47.28;18.48;;;;;;;3.89;100.00;100861.13;5041679;28;20025;-66
2023/12/09 02:28:28;;;;;;;41.95;17.15;;;;;;;3.89;100.00;100861.13;5040475;28;20052;-66
2023/12/09 02:31:11;;;;;;;53.78;19.77;;;;;;;3.88;100.00;100862.00;5036714;28;20025;-67
2023/12/09 02:33:40;;;;;;;52.40;18.20;;;;;;;3.83;100.00;100858.63;5035935;28;20029;-67
2023/12/09 02:36:09;;;;;;;49.58;18.48;;;;;;;3.88;100.00;100850.63;5043430;28;20211;-67
2023/12/09 02:38:37;;;;;;;41.83;17.42;;;;;;;3.89;100.00;100855.88;5036381;28;20039;-67
2023/12/09 02:41:05;;;;;;;50.17;18.10;;;;;;;3.85;100.00;100850.72;5040269;28;20036;-66
2023/12/09 02:43:31;;;;;;;51.08;18.60;;;;;;;3.89;100.00;100841.84;5048578;28;20107;-66
2023/12/09 02:45:57;;;;;;;43.85;17.73;;;;;;;3.86;100.00;100842.78;5033125;28;20462;-67
2023/12/09 02:48:23;;;;;;;45.75;17.50;;;;;;;3.82;100.00;100833.22;5038613;28;20021;-67
2023/12/09 02:50:49;;;;;;;48.67;17.83;;;;;;;3.81;100.00;100830.63;5034484;28;20157;-67
2023/12/09 02:53:15;;;;;;;44.50;18.05;;;;;;;3.79;100.00;100822.75;5038366;28;20097;-67
2023/12/09 02:55:40;;;;;;;47.10;17.95;;;;;;;3.85;100.00;100822.59;5039468;28;20068;-67
2023/12/09 02:58:05;;;;;;;47.50;18.00;;;;;;;3.82;100.00;100813.91;5037891;28;20550;-67
2023/12/09 03:00:31;;;;;;;44.58;17.05;;;;;;;3.85;100.00;100821.75;5037943;28;20060;-67
2023/12/09 03:02:56;;;;;;;47.90;18.40;;;;;;;3.83;100.00;100823.53;5029315;28;20071;-67
2023/12/09 03:05:22;;;;;;;48.13;18.80;;;;;;;3.83;100.00;100811.22;5038367;28;20044;-67
2023/12/09 03:07:47;;;;;;;49.88;17.90;;;;;;;3.81;100.00;100822.72;5037780;28;20114;-66
2023/12/09 03:10:12;;;;;;;41.97;17.23;;;;;;;3.79;100.00;100806.94;5039755;28;20033;-67
2023/12/09 03:12:38;;;;;;;48.35;18.45;;;;;;;3.81;100.00;100825.34;5023383;28;20284;-67
2023/12/09 03:15:05;;;;;;;48.40;18.45;;;;;;;3.81;100.00;100807.78;5029859;28;20021;-67
2023/12/09 03:17:33;;;;;;;49.10;18.00;;;;;;;3.80;100.00;100823.59;5025130;28;20091;-67
2023/12/09 03:19:58;;;;;;;47.38;17.42;;;;;;;3.73;100.00;100804.47;5022663;28;20921;-67
2023/12/09 03:22:24;;;;;;;50.53;17.50;;;;;;;3.74;100.00;100822.84;5015118;28;20079;-67
2023/12/09 03:24:49;;;;;;;46.83;17.08;;;;;;;3.71;100.00;100808.88;5028564;28;20387;-67
2023/12/09 03:27:14;;;;;;;47.95;17.73;;;;;;;3.71;100.00;100815.00;5024873;28;20033;-67
2023/12/09 03:29:40;;;;;;;49.15;18.10;;;;;;;3.67;100.00;100792.28;5022864;28;20037;-67
2023/12/09 03:32:06;;;;;;;48.05;18.33;;;;;;;3.71;100.00;100819.41;5023928;28;20112;-67
2023/12/09 03:34:31;;;;;;;50.83;17.70;;;;;;;3.73;100.00;100807.09;5026802;28;20522;-67
2023/12/09 03:36:57;;;;;;;41.08;16.42;;;;;;;3.68;100.00;100801.09;5031163;28;20061;-67
2023/12/09 03:39:22;;;;;;;43.20;17.92;;;;;;;3.74;100.00;100803.56;5017731;28;20506;-67
2023/12/09 03:41:47;;;;;;;46.80;19.15;;;;;;;3.70;100.00;100800.13;5017370;28;20068;-67
2023/12/09 03:44:13;;;;;;;48.45;18.05;;;;;;;3.71;100.00;100801.00;5023351;28;20025;-67
2023/12/09 03:46:38;;;;;;;42.63;17.20;;;;;;;3.70;100.00;100801.91;5026281;28;20094;-67
2023/12/09 03:49:03;;;;;;;41.00;16.88;;;;;;;3.70;100.00;100786.97;5024240;28;20033;-67
2023/12/09 03:51:28;;;;;;;52.20;18.40;;;;;;;3.68;100.00;100790.56;5023244;28;20029;-67
2023/12/09 03:53:54;;;;;;;46.08;16.85;;;;;;;3.65;100.00;100791.47;5024199;28;20025;-67
2023/12/09 03:56:21;;;;;;;44.42;17.27;;;;;;;3.69;100.00;100787.88;5028297;28;20479;-68
2023/12/09 03:58:47;;;;;;;43.80;16.83;;;;;;;3.61;100.00;100774.03;5019742;28;20125;-67
2023/12/09 04:01:12;;;;;;;51.97;18.92;;;;;;;3.58;100.00;100770.59;5029184;28;20124;-67
2023/12/09 04:03:38;;;;;;;42.92;17.10;;;;;;;3.54;100.00;100776.81;5023088;28;20040;-67
2023/12/09 04:06:05;;;;;;;53.95;18.38;;;;;;;3.55;100.00;100761.00;5023534;28;20128;-65
2023/12/09 04:08:34;;;;;;;46.58;17.92;;;;;;;3.50;100.00;100755.84;5023427;28;20021;-66
2023/12/09 04:10:59;;;;;;;56.10;18.05;;;;;;;3.44;100.00;100757.78;5023619;28;20022;-66
2023/12/09 04:13:24;;;;;;;52.95;16.90;;;;;;;3.41;100.00;100763.94;5024292;28;20083;-66
2023/12/09 04:15:50;;;;;;;45.58;17.88;;;;;;;3.42;100.00;100768.31;5021972;28;20025;-67
2023/12/09 04:18:15;;;;;;;43.97;17.50;;;;;;;3.41;100.00;100773.63;5027590;28;20082;-66
2023/12/09 04:20:41;;;;;;;45.80;17.33;;;;;;;3.47;100.00;100776.13;5018054;28;20029;-66
2023/12/09 04:23:06;;;;;;;46.50;16.92;;;;;;;3.45;100.00;100765.63;5022664;28;20523;-67
2023/12/09 04:25:32;;;;;;;46.78;16.40;;;;;;;3.25;100.00;100744.16;5017463;28;20313;-66
2023/12/09 04:27:57;;;;;;;44.83;17.17;;;;;;;3.34;100.00;100757.09;5032603;28;20036;-67
2023/12/09 04:30:22;;;;;;;43.88;17.33;;;;;;;3.36;100.00;100754.44;5027668;28;20017;-67
2023/12/09 04:32:48;;;;;;;51.22;17.33;;;;;;;3.36;100.00;100731.63;5022848;28;20090;-66
2023/12/09 04:35:14;;;;;;;59.17;17.52;;;;;;;3.28;100.00;100738.81;5012902;28;20508;-66
2023/12/09 04:37:39;;;;;;;44.38;16.98;;;;;;;3.32;100.00;100747.53;5023898;28;20048;-67
2023/12/09 04:40:09;;;;;;;45.78;17.55;;;;;;;3.26;100.00;100730.13;5016871;28;20472;-67
2023/12/09 04:42:34;;;;;;;45.47;16.80;;;;;;;3.36;100.00;100736.03;5031167;28;20032;-66
2023/12/09 04:44:59;;;;;;;50.35;17.55;;;;;;;3.35;100.00;100737.78;5031527;28;20098;-67
2023/12/09 04:47:25;;;;;;;45.60;16.90;;;;;;;3.33;100.00;100733.47;5024073;28;20034;-66
2023/12/09 04:49:50;;;;;;;48.78;16.90;;;;;;;3.32;100.00;100729.97;5034250;28;20407;-66
2023/12/09 04:52:15;;;;;;;45.78;16.70;;;;;;;3.23;100.00;100711.78;5023129;28;20075;-66
2023/12/09 04:54:41;;;;;;;45.63;16.10;;;;;;;3.29;100.00;100713.38;5033259;28;20045;-67
2023/12/09 04:57:06;;;;;;;41.28;16.00;;;;;;;3.25;100.00;100723.97;5016702;28;20519;-66
2023/12/09 04:59:32;;;;;;;51.60;16.65;;;;;;;3.28;100.00;100717.78;5021366;28;20102;-67
2023/12/09 05:01:57;;;;;;;46.25;17.02;;;;;;;3.24;100.00;100711.72;5022920;28;20040;-66
2023/12/09 05:04:22;;;;;;;46.05;16.80;;;;;;;3.29;100.00;100714.25;5020258;28;20053;-68
2023/12/09 05:06:48;;;;;;;42.72;15.82;;;;;;;3.26;100.00;100716.97;5022478;28;20060;-67
2023/12/09 05:09:14;;;;;;;41.55;16.63;;;;;;;3.19;100.00;100699.59;5016618;28;20041;-66
2023/12/09 05:11:39;;;;;;;33.67;15.02;;;;;;;3.20;100.00;100699.53;5023239;28;20106;-66
2023/12/09 05:14:05;;;;;;;40.28;15.18;;;;;;;3.15;100.00;100690.03;5024657;28;20068;-66
2023/12/09 05:16:30;;;;;;;46.70;16.17;;;;;;;3.17;100.00;100694.34;5032048;28;20043;-68
2023/12/09 05:18:55;;;;;;;39.42;14.35;;;;;;;3.20;100.00;100696.91;5026247;28;20068;-67
2023/12/09 05:21:21;;;;;;;43.95;15.52;;;;;;;3.27;100.00;100702.91;5025390;28;20159;-68
2023/12/09 05:23:46;;;;;;;40.90;15.07;;;;;;;3.34;100.00;100711.50;5020413;28;20061;-67
2023/12/09 05:26:28;;;;;;;41.13;15.57;;;;;;;3.35;100.00;100708.00;5017017;28;20033;-67
2023/12/09 05:28:54;;;;;;;44.65;15.48;;;;;;;3.30;100.00;100696.69;5017355;28;20017;-67
2023/12/09 05:31:21;;;;;;;44.65;15.80;;;;;;;3.28;100.00;100688.84;5022844;28;20422;-66
2023/12/09 05:33:47;;;;;;;46.17;15.73;;;;;;;3.28;100.00;100694.09;5024183;28;20435;-67
2023/12/09 05:36:13;;;;;;;47.45;15.13;;;;;;;3.32;100.00;100695.75;5021177;28;20025;-67
2023/12/09 05:38:38;;;;;;;39.22;14.73;;;;;;;3.33;100.00;100700.13;5013447;28;20088;-66
2023/12/09 05:41:07;;;;;;;43.03;15.40;;;;;;;3.34;100.00;100699.22;5020538;28;20048;-66
2023/12/09 05:43:34;;;;;;;37.97;14.80;;;;;;;3.32;100.00;100693.13;5014637;28;20029;-66
2023/12/09 05:45:59;;;;;;;42.70;15.55;;;;;;;3.37;100.00;100693.03;5021608;28;20029;-66
2023/12/09 05:48:24;;;;;;;40.35;14.30;;;;;;;3.31;100.00;100695.81;5029603;28;20032;-68
2023/12/09 05:50:49;;;;;;;46.58;14.90;;;;;;;3.37;100.00;100682.50;5027174;28;20025;-67
2023/12/09 05:53:15;;;;;;;41.03;15.05;;;;;;;3.29;100.00;100679.19;5019492;28;20037;-68
2023/12/09 05:55:40;;;;;;;41.25;14.57;;;;;;;3.25;100.00;100667.88;5022163;28;20138;-67
2023/12/09 05:58:06;;;;;;;37.53;13.85;;;;;;;3.31;100.00;100670.38;5021376;28;20380;-67
2023/12/09 06:00:32;;;;;;;42.30;14.40;;;;;;;3.35;100.00;100668.53;5021231;28;20057;-67
2023/12/09 06:02:57;;;;;;;35.78;14.18;;;;;;;3.38;100.00;100666.66;5019498;28;20393;-66
2023/12/09 06:05:24;;;;;;;44.05;14.80;;;;;;;3.46;100.00;100680.50;5013792;28;20025;-67
2023/12/09 06:07:49;;;;;;;40.13;15.43;;;;;;;3.40;100.00;100672.78;5021824;28;20037;-67
2023/12/09 06:10:15;;;;;;;44.00;14.65;;;;;;;3.42;100.00;100667.47;5011187;28;20452;-67
2023/12/09 06:12:40;;;;;;;43.67;14.32;;;;;;;3.39;100.00;100675.44;5020726;28;20384;-67
2023/12/09 06:15:06;;;;;;;43.78;14.20;;;;;;;3.31;100.00;100672.13;5032505;28;20025;-66
2023/12/09 06:17:35;;;;;;;37.70;14.45;;;;;;;3.40;100.00;100659.63;5029826;28;20061;-66
2023/12/09 06:20:00;;;;;;;33.55;14.23;;;;;;;3.33;100.00;100652.75;5014431;28;20045;-67
2023/12/09 06:22:26;;;;;;;34.00;13.93;;;;;;;3.34;100.00;100648.38;5024477;28;20032;-67
2023/12/09 06:24:51;;;;;;;40.63;13.85;;;;;;;3.23;100.00;100638.97;5014644;28;20585;-67
2023/12/09 06:27:17;;;;;;;42.30;14.70;;;;;;;3.17;100.00;100633.84;5020258;28;20084;-66
2023/12/09 06:29:46;;;;;;;39.78;14.18;;;;;;;3.25;100.00;100636.31;5018209;28;20022;-67
2023/12/09 06:32:12;;;;;;;37.88;13.60;;;;;;;3.21;100.00;100629.38;5025449;28;20029;-67
2023/12/09 06:34:38;;;;;;;38.25;13.63;;;;;;;3.13;100.00;100637.44;5026041;28;20569;-66
2023/12/09 06:37:03;;;;;;;38.15;13.70;;;;;;;3.19;100.00;100618.91;5020239;28;20017;-66
2023/12/09 06:39:28;;;;;;;40.53;12.93;;;;;;;3.15;100.00;100619.88;5018252;28;20492;-66
2023/12/09 06:41:54;;;;;;;40.63;13.68;;;;;;;3.15;100.00;100616.41;5020707;28;20044;-67
2023/12/09 06:44:19;;;;;;;40.40;13.32;;;;;;;3.12;100.00;100619.09;5020100;28;20033;-67
2023/12/09 06:46:44;;;;;;;38.28;13.40;;;;;;;3.14;100.00;100617.31;5021413;28;20038;-67
2023/12/09 06:49:09;;;;;;;40.33;14.63;;;;;;;3.14;100.00;100604.16;5016633;28;20761;-66
2023/12/09 06:51:35;;;;;;;36.55;14.32;;;;;;;3.13;100.00;100595.38;5011830;28;20064;-67
2023/12/09 06:54:00;;;;;;;39.50;13.32;;;;;;;3.13;100.00;100599.78;5019613;28;20285;-67
2023/12/09 06:56:26;;;;;;;39.08;14.07;;;;;;;3.18;100.00;100590.91;5023736;28;20085;-67
2023/12/09 06:58:52;;;;;;;35.03;13.68;;;;;;;3.19;100.00;100582.09;5018632;28;20194;-67
2023/12/09 07:01:26;;;;;;;33.58;13.98;;;;;;;3.28;100.00;100573.09;5018412;28;20037;-67
2023/12/09 07:03:52;;;;;;;37.40;13.35;;;;;;;3.18;100.00;100556.69;5026269;28;20299;-67
2023/12/09 07:06:26;;;;;;;30.30;12.52;;;;;;;3.28;100.00;100553.84;5020197;28;20684;-67
2023/12/09 07:08:52;;;;;;;;;;;;;;;3.18;100.00;100546.19;5024523;28;20039;-67
2023/12/09 07:11:18;;;;;;;34.30;14.25;;;;;;;3.20;100.00;100543.50;5020087;28;20367;-67
2023/12/09 07:13:43;;;;;;;41.78;14.02;;;;;;;3.17;100.00;100538.31;5022933;28;20036;-67
2023/12/09 07:16:10;;;;;;;36.58;13.93;;;;;;;3.19;100.00;100520.75;5022497;28;20276;-66
2023/12/09 07:18:37;;;;;;;33.47;13.68;;;;;;;3.21;100.00;100518.91;5019745;28;20031;-66
2023/12/09 07:21:02;;;;;;;37.42;13.85;;;;;;;3.25;100.00;100512.69;5019208;28;20036;-66
2023/12/09 07:23:28;;;;;;;37.58;14.40;;;;;;;3.39;100.00;100505.31;5024899;28;20496;-67
2023/12/09 07:25:55;;;;;;;35.10;14.20;;;;;;;3.38;100.00;100503.56;5019657;28;20040;-67
2023/12/09 07:28:20;;;;;;;35.30;13.63;;;;;;;3.36;100.00;100496.63;5023925;28;20083;-67
2023/12/09 07:30:46;;;;;;;33.10;14.32;;;;;;;3.43;100.00;100501.69;5020610;28;20033;-66
2023/12/09 07:33:11;;;;;;;37.53;14.02;;;;;;;3.43;100.00;100513.97;5020303;28;20041;-66
2023/12/09 07:35:36;;;;;;;36.05;13.98;;;;;;;3.49;100.00;100514.66;5018575;28;20041;-67
2023/12/09 07:38:05;;;;;;;35.78;14.07;;;;;;;3.50;100.00;100513.75;5018298;28;20029;-67
2023/12/09 07:40:30;;;;;;;36.45;14.10;;;;;;;3.53;100.00;100504.06;5020759;28;20342;-67
2023/12/09 07:42:56;;;;;;;34.75;13.30;;;;;;;3.60;100.00;100497.75;5023164;28;20112;-67
2023/12/09 07:45:21;;;;;;;39.30;14.70;;;;;;;3.61;100.00;100488.94;5020841;28;20291;-67
2023/12/09 07:47:46;;;;;;;38.30;12.80;;;;;;;3.61;100.00;100478.41;5023529;28;20026;-67
2023/12/09 07:50:12;;;;;;;32.95;12.05;;;;;;;3.57;100.00;100468.88;5019823;28;20043;-67
2023/12/09 07:52:37;;;;;;;32.50;12.18;;;;;;;3.76;100.00;100475.31;5018479;28;20147;-67
2023/12/09 07:55:02;;;;;;;34.95;13.30;;;;;;;3.81;100.00;100481.34;5020300;28;20021;-66
2023/12/09 07:57:28;;;;;;;33.15;12.25;;;;;;;3.84;100.00;100477.72;5016971;28;20076;-67
2023/12/09 07:59:53;;;;;;;34.97;13.27;;;;;;;3.91;100.00;100488.03;5017481;28;20048;-67
2023/12/09 08:02:18;;;;;;;31.08;12.43;;;;;;;3.87;100.00;100475.03;5022147;28;20719;-67
2023/12/09 08:04:44;;;;;;;31.58;12.35;;;;;;;3.90;100.00;100467.03;5018326;28;20114;-68
2023/12/09 08:07:09;;;;;;;31.70;12.95;;;;;;;3.95;100.00;100462.50;5023614;28;20876;-68
2023/12/09 08:09:35;;;;;;;31.85;12.40;;;;;;;3.93;100.00;100438.84;5019963;28;20029;-69
2023/12/09 08:12:00;;;;;;;33.63;11.43;;;;;;;3.98;100.00;100433.44;5022304;28;20021;-68
2023/12/09 08:14:25;;;;;;;34.03;11.18;;;;;;;4.03;100.00;100443.84;5017043;28;20033;-68
2023/12/09 08:16:51;;;;;;;29.30;11.68;;;;;;;4.04;100.00;100441.16;5014556;28;20171;-68
2023/12/09 08:19:17;;;;;;;32.00;10.88;;;;;;;4.11;100.00;100439.19;5018811;28;20026;-68
2023/12/09 08:21:42;;;;;;;32.20;11.05;;;;;;;4.19;100.00;100438.03;5020664;28;20421;-70
2023/12/09 08:24:07;;;;;;;29.90;10.27;;;;;;;4.28;100.00;100441.31;5015072;28;20035;-69
2023/12/09 08:26:33;;;;;;;29.90;10.07;;;;;;;4.32;100.00;100445.56;5022896;28;20027;-68
2023/12/09 08:29:00;;;;;;;25.00;9.88;;;;;;;4.35;100.00;100438.44;5015386;28;20447;-68
2023/12/09 08:31:25;;;;;;;28.98;10.43;;;;;;;4.40;100.00;100444.41;5008010;28;20480;-68
2023/12/09 08:33:51;;;;;;;30.63;9.90;;;;;;;4.40;100.00;100431.25;5023503;28;20040;-68
2023/12/09 08:36:16;;;;;;;30.30;9.93;;;;;;;4.43;100.00;100438.16;5027522;28;20030;-67
2023/12/09 08:38:41;;;;;;;25.63;9.18;;;;;;;4.45;100.00;100436.34;5021474;28;20041;-68
2023/12/09 08:41:07;;;;;;;25.77;8.73;;;;;;;4.48;100.00;100437.13;5018170;28;20033;-68
2023/12/09 08:43:32;;;;;;;27.23;9.10;;;;;;;4.45;100.00;100426.69;5025970;28;20065;-68
2023/12/09 08:45:57;;;;;;;21.40;8.95;;;;;;;4.49;100.00;100436.22;5028396;28;20492;-69
2023/12/09 08:48:24;;;;;;;23.75;7.63;;;;;;;4.52;100.00;100423.84;5034831;28;20513;-67
2023/12/09 08:50:50;;;;;;;22.67;8.20;;;;;;;4.60;100.00;100432.34;5029076;28;20453;-68
2023/12/09 08:53:15;;;;;;;22.65;8.15;;;;;;;4.61;100.00;100420.91;5025136;28;20025;-68
2023/12/09 08:55:41;;;;;;;21.23;7.55;;;;;;;4.63;100.00;100405.91;5025930;28;20036;-68
2023/12/09 08:58:06;;;;;;;17.95;7.40;;;;;;;4.66;100.00;100419.84;5017661;28;20044;-68
2023/12/09 09:00:32;;;;;;;30.38;7.47;;;;;;;4.71;100.00;100412.63;5022007;28;20053;-67
2023/12/09 09:02:57;;;;;;;20.58;6.85;;;;;;;4.73;100.00;100402.91;5029012;28;20029;-69
2023/12/09 09:05:23;;;;;;;23.88;7.15;;;;;;;4.82;100.00;100411.44;5025145;28;20523;-68
2023/12/09 09:07:48;;;;;;;20.95;6.90;;;;;;;4.81;100.00;100394.75;5025905;28;20510;-69
2023/12/09 09:10:14;;;;;;;20.40;7.22;;;;;;;4.84;100.00;100388.50;5022083;28;20058;-67
2023/12/09 09:12:39;;;;;;;19.20;7.05;;;;;;;4.91;100.00;100382.94;5013485;28;20284;-68
2023/12/09 09:15:05;;;;;;;16.05;6.18;;;;;;;4.95;100.00;100379.28;5007985;28;20084;-67
2023/12/09 09:17:32;;;;;;;25.17;6.70;;;;;;;4.98;100.00;100357.25;5015973;28;20077;-67
2023/12/09 09:19:57;;;;;;;20.42;6.60;;;;;;;5.00;100.00;100342.22;5018071;28;20054;-68
2023/12/09 09:22:23;;;;;;;17.05;5.50;;;;;;;5.02;100.00;100323.66;5018703;28;20460;-67
2023/12/09 09:24:49;;;;;;;18.48;6.18;;;;;;;5.08;100.00;100323.47;5020537;28;20390;-66
2023/12/09 09:27:14;;;;;;;15.90;6.05;;;;;;;5.11;100.00;100304.91;5022623;28;20034;-66
2023/12/09 09:29:39;;;;;;;14.23;5.63;;;;;;;5.18;100.00;100301.09;5015294;28;20367;-66
2023/12/09 09:32:06;;;;;;;14.45;5.70;;;;;;;5.19;100.00;100300.19;5011936;28;20384;-66
2023/12/09 09:34:34;;;;;;;18.23;6.07;;;;;;;5.25;100.00;100292.91;5019978;28;20066;-67
2023/12/09 09:36:59;;;;;;;16.85;5.78;;;;;;;5.31;100.00;100283.91;5020825;28;20025;-67
2023/12/09 09:39:24;;;;;;;14.98;5.63;;;;;;;5.33;100.00;100281.19;5019092;28;20392;-67
2023/12/09 09:42:08;;;;;;;18.35;5.65;;;;;;;5.40;100.00;100291.47;5014959;28;20504;-68
2023/12/09 09:44:37;;;;;;;;;;;;;;;5.47;100.00;100279.72;5020649;28;20506;-67
2023/12/09 09:47:04;;;;;;;12.15;4.63;;;;;;;5.47;100.00;100292.06;5018365;28;19927;-67
2023/12/09 09:49:33;;;;;;;13.43;4.93;;;;;;;5.48;100.00;100299.94;5021119;28;20124;-67
2023/12/09 09:52:03;;;;;;;13.10;4.70;;;;;;;5.49;100.00;100287.59;5015539;28;20068;-68
2023/12/09 09:54:30;;;;;;;16.27;5.05;;;;;;;5.53;100.00;100286.56;5019212;28;20310;-67
2023/12/09 09:57:03;;;;;;;14.80;4.93;;;;;;;5.55;100.00;100268.03;5019785;28;20021;-68
2023/12/09 09:59:30;;;;;;;15.65;5.57;;;;;;;5.59;100.00;100261.69;5016388;28;20080;-68
2023/12/09 10:01:56;;;;;;;15.00;5.00;;;;;;;5.59;100.00;100245.88;5015089;28;20118;-68
2023/12/09 10:04:21;;;;;;;11.60;4.95;;;;;;;5.63;100.00;100242.19;5016999;28;20484;-67
2023/12/09 10:06:47;;;;;;;15.05;4.65;;;;;;;5.66;100.00;100231.50;5018064;28;20324;-68
2023/12/09 10:09:13;;;;;;;12.93;4.28;;;;;;;5.72;100.00;100236.53;5019779;28;20082;-67
2023/12/09 10:11:39;;;;;;;17.65;4.20;;;;;;;5.72;100.00;100229.47;5016075;28;20045;-65
2023/12/09 10:14:05;;;;;;;13.43;4.85;;;;;;;5.63;100.00;100219.28;5019492;28;20040;-68
2023/12/09 10:16:30;;;;;;;11.38;4.30;;;;;;;5.66;100.00;100213.88;5018218;28;20033;-69
2023/12/09 10:18:56;;;;;;;11.98;4.10;;;;;;;5.64;100.00;100197.25;5032720;28;20033;-70
2023/12/09 10:21:22;;;;;;;12.95;4.40;;;;;;;5.65;100.00;100188.41;5018802;28;20496;-67
2023/12/09 10:23:47;;;;;;;12.00;4.97;;;;;;;5.63;100.00;100178.81;5019989;28;20033;-68
2023/12/09 10:26:14;;;;;;;11.50;4.30;;;;;;;5.63;100.00;100165.63;5014368;28;20037;-72
2023/12/09 10:28:40;;;;;;;12.07;4.32;;;;;;;5.59;100.00;100162.25;5022779;28;20490;-68
2023/12/09 10:31:07;;;;;;;14.45;5.00;;;;;;;5.58;100.00;100155.25;5023467;28;20036;-67
2023/12/09 10:33:33;;;;;;;17.67;5.13;;;;;;;5.60;100.00;100142.88;5020096;28;20032;-68
2023/12/09 10:36:00;;;;;;;9.57;3.85;;;;;;;5.60;100.00;100128.78;5034324;28;20051;-68
2023/12/09 10:38:25;;;;;;;15.25;4.55;;;;;;;5.64;100.00;100130.38;5024677;28;20025;-67
2023/12/09 10:40:51;;;;;;;9.82;4.22;;;;;;;5.64;100.00;100125.97;5019655;28;20368;-67
2023/12/09 10:43:17;;;;;;;16.92;4.78;;;;;;;5.69;100.00;100120.50;5020169;28;20032;-66
2023/12/09 10:45:43;;;;;;;9.70;3.45;;;;;;;5.78;100.00;100117.47;5018876;28;20029;-67
2023/12/09 10:48:08;;;;;;;21.83;6.95;;;;;;;5.75;100.00;100099.94;5022728;28;20075;-68
2023/12/09 10:50:36;;;;;;;14.38;4.97;;;;;;;5.80;100.00;100093.63;5016926;28;20022;-68
2023/12/09 10:53:02;;;;;;;9.57;4.05;;;;;;;5.81;100.00;100083.00;5025120;28;20033;-68
2023/12/09 10:55:27;;;;;;;11.38;3.38;;;;;;;5.85;100.00;100067.84;5013189;28;20037;-69
2023/12/09 10:57:54;;;;;;;8.65;3.10;;;;;;;5.86;100.00;100051.13;5021816;28;20026;-69
2023/12/09 11:00:20;;;;;;;7.28;2.97;;;;;;;5.89;100.00;100043.88;5020386;28;20158;-66
2023/12/09 11:02:46;;;;;;;9.82;3.45;;;;;;;5.88;100.00;100036.03;5020936;28;20121;-68
2023/12/09 11:05:13;;;;;;;10.45;3.65;;;;;;;5.86;100.00;100033.47;5017102;28;20064;-68
2023/12/09 11:07:39;;;;;;;9.93;3.45;;;;;;;5.83;100.00;100017.75;5015014;28;20129;-69